sensor_id;sensor_type;location;lat;lon;timestamp;temperature;humidity
12123;DHT22;6125;59.628;17.852;2022-12-18T00:01:00;-0.30;99.90
12123;DHT22;6125;59.628;17.852;2022-12-18T00:03:31;-0.30;99.90
12123;DHT22;6125;59.628;17.852;2022-12-18T00:05:58;-0.30;99.90
12123;DHT22;6125;59.628;17.852;2022-12-18T00:08:27;-0.30;99.90
12123;DHT22;6125;59.628;17.852;2022-12-18T00:10:54;-0.30;99.90
12123;DHT22;6125;59.628;17.852;2022-12-18T00:13:22;-0.30;99.90
12123;DHT22;6125;59.628;17.852;2022-12-18T00:15:51;-0.30;99.90
12123;DHT22;6125;59.628;17.852;2022-12-18T00:18:17;-0.30;99.90
12123;DHT22;6125;59.628;17.852;2022-12-18T00:20:44;-0.20;99.90
12123;DHT22;6125;59.628;17.852;2022-12-18T00:23:11;-0.20;99.90
12123;DHT22;6125;59.628;17.852;2022-12-18T00:25:41;-0.20;99.90
12123;DHT22;6125;59.628;17.852;2022-12-18T00:28:08;-0.20;99.90
12123;DHT22;6125;59.628;17.852;2022-12-18T00:30:34;-0.20;99.90
12123;DHT22;6125;59.628;17.852;2022-12-18T00:33:03;-0.20;99.90
12123;DHT22;6125;59.628;17.852;2022-12-18T00:35:30;-0.20;99.90
12123;DHT22;6125;59.628;17.852;2022-12-18T00:37:58;-0.10;99.90
12123;DHT22;6125;59.628;17.852;2022-12-18T00:40:24;-0.10;99.90
12123;DHT22;6125;59.628;17.852;2022-12-18T00:42:51;-0.10;99.90
12123;DHT22;6125;59.628;17.852;2022-12-18T00:45:24;-0.10;99.90
12123;DHT22;6125;59.628;17.852;2022-12-18T00:47:52;0.00;99.90
12123;DHT22;6125;59.628;17.852;2022-12-18T00:50:21;0.00;99.90
12123;DHT22;6125;59.628;17.852;2022-12-18T00:52:48;0.00;99.90
12123;DHT22;6125;59.628;17.852;2022-12-18T00:55:15;0.00;99.90
12123;DHT22;6125;59.628;17.852;2022-12-18T00:57:42;0.10;99.90
12123;DHT22;6125;59.628;17.852;2022-12-18T01:00:11;0.10;99.90
12123;DHT22;6125;59.628;17.852;2022-12-18T01:02:39;0.10;99.90
12123;DHT22;6125;59.628;17.852;2022-12-18T01:05:06;0.10;99.90
12123;DHT22;6125;59.628;17.852;2022-12-18T01:07:35;0.10;99.90
12123;DHT22;6125;59.628;17.852;2022-12-18T01:10:02;0.20;99.90
12123;DHT22;6125;59.628;17.852;2022-12-18T01:12:29;0.20;99.90
12123;DHT22;6125;59.628;17.852;2022-12-18T01:14:56;0.20;99.90
12123;DHT22;6125;59.628;17.852;2022-12-18T01:17:23;0.20;99.90
12123;DHT22;6125;59.628;17.852;2022-12-18T01:19:50;0.30;99.90
12123;DHT22;6125;59.628;17.852;2022-12-18T01:22:18;0.30;99.90
12123;DHT22;6125;59.628;17.852;2022-12-18T01:24:46;0.30;99.90
12123;DHT22;6125;59.628;17.852;2022-12-18T01:27:13;0.30;99.90
12123;DHT22;6125;59.628;17.852;2022-12-18T01:29:40;0.30;99.90
12123;DHT22;6125;59.628;17.852;2022-12-18T01:32:08;0.30;99.90
12123;DHT22;6125;59.628;17.852;2022-12-18T01:34:35;0.30;99.90
12123;DHT22;6125;59.628;17.852;2022-12-18T01:37:03;0.30;99.90
12123;DHT22;6125;59.628;17.852;2022-12-18T01:39:30;0.40;99.90
12123;DHT22;6125;59.628;17.852;2022-12-18T01:41:59;0.40;99.90
12123;DHT22;6125;59.628;17.852;2022-12-18T01:45:00;0.40;99.90
12123;DHT22;6125;59.628;17.852;2022-12-18T01:47:39;0.30;99.90
12123;DHT22;6125;59.628;17.852;2022-12-18T01:50:11;0.30;99.90
12123;DHT22;6125;59.628;17.852;2022-12-18T01:52:41;0.40;99.90
12123;DHT22;6125;59.628;17.852;2022-12-18T01:55:10;0.40;99.90
12123;DHT22;6125;59.628;17.852;2022-12-18T01:57:39;0.40;99.90
12123;DHT22;6125;59.628;17.852;2022-12-18T02:00:09;0.40;99.90
12123;DHT22;6125;59.628;17.852;2022-12-18T02:02:37;0.40;99.90
12123;DHT22;6125;59.628;17.852;2022-12-18T02:05:06;0.40;99.90
12123;DHT22;6125;59.628;17.852;2022-12-18T02:07:42;0.40;99.90
12123;DHT22;6125;59.628;17.852;2022-12-18T02:10:13;0.40;99.90
12123;DHT22;6125;59.628;17.852;2022-12-18T02:12:51;0.40;99.90
12123;DHT22;6125;59.628;17.852;2022-12-18T02:15:26;0.40;99.90
12123;DHT22;6125;59.628;17.852;2022-12-18T02:18:00;0.40;99.90
12123;DHT22;6125;59.628;17.852;2022-12-18T02:20:34;0.40;99.90
12123;DHT22;6125;59.628;17.852;2022-12-18T02:23:10;0.40;99.90
12123;DHT22;6125;59.628;17.852;2022-12-18T02:25:53;0.40;99.90
12123;DHT22;6125;59.628;17.852;2022-12-18T02:28:28;0.40;99.90
12123;DHT22;6125;59.628;17.852;2022-12-18T02:30:58;0.40;99.90
12123;DHT22;6125;59.628;17.852;2022-12-18T02:33:27;0.40;99.90
12123;DHT22;6125;59.628;17.852;2022-12-18T02:35:57;0.40;99.90
12123;DHT22;6125;59.628;17.852;2022-12-18T02:38:26;0.50;99.90
12123;DHT22;6125;59.628;17.852;2022-12-18T02:40:55;0.50;99.90
12123;DHT22;6125;59.628;17.852;2022-12-18T02:43:23;0.50;99.90
12123;DHT22;6125;59.628;17.852;2022-12-18T02:45:53;0.50;99.90
12123;DHT22;6125;59.628;17.852;2022-12-18T02:48:24;0.50;99.90
12123;DHT22;6125;59.628;17.852;2022-12-18T02:50:57;0.50;99.90
12123;DHT22;6125;59.628;17.852;2022-12-18T02:53:31;0.50;99.90
12123;DHT22;6125;59.628;17.852;2022-12-18T02:56:07;0.50;99.90
12123;DHT22;6125;59.628;17.852;2022-12-18T02:58:41;0.50;99.90
12123;DHT22;6125;59.628;17.852;2022-12-18T03:01:15;0.50;99.90
12123;DHT22;6125;59.628;17.852;2022-12-18T03:03:47;0.60;99.90
12123;DHT22;6125;59.628;17.852;2022-12-18T03:06:18;0.50;99.90
12123;DHT22;6125;59.628;17.852;2022-12-18T03:08:49;0.50;99.90
12123;DHT22;6125;59.628;17.852;2022-12-18T03:11:19;0.50;99.90
12123;DHT22;6125;59.628;17.852;2022-12-18T03:14:07;0.50;99.90
12123;DHT22;6125;59.628;17.852;2022-12-18T03:16:34;0.60;99.90
12123;DHT22;6125;59.628;17.852;2022-12-18T03:19:05;0.60;99.90
12123;DHT22;6125;59.628;17.852;2022-12-18T03:21:36;0.50;99.90
12123;DHT22;6125;59.628;17.852;2022-12-18T03:24:07;0.50;99.90
12123;DHT22;6125;59.628;17.852;2022-12-18T03:26:37;0.50;99.90
12123;DHT22;6125;59.628;17.852;2022-12-18T03:29:09;0.60;99.90
12123;DHT22;6125;59.628;17.852;2022-12-18T03:31:37;0.60;99.90
12123;DHT22;6125;59.628;17.852;2022-12-18T03:34:09;0.50;99.90
12123;DHT22;6125;59.628;17.852;2022-12-18T03:36:40;0.50;99.90
12123;DHT22;6125;59.628;17.852;2022-12-18T03:39:07;0.50;99.90
12123;DHT22;6125;59.628;17.852;2022-12-18T03:41:43;0.50;99.90
12123;DHT22;6125;59.628;17.852;2022-12-18T03:44:13;0.50;99.90
12123;DHT22;6125;59.628;17.852;2022-12-18T03:46:47;0.50;99.90
12123;DHT22;6125;59.628;17.852;2022-12-18T03:49:21;0.50;99.90
12123;DHT22;6125;59.628;17.852;2022-12-18T03:51:53;0.50;99.90
12123;DHT22;6125;59.628;17.852;2022-12-18T03:54:23;0.50;99.90
12123;DHT22;6125;59.628;17.852;2022-12-18T03:57:00;0.40;99.90
12123;DHT22;6125;59.628;17.852;2022-12-18T03:59:29;0.50;99.90
12123;DHT22;6125;59.628;17.852;2022-12-18T04:01:57;0.40;99.90
12123;DHT22;6125;59.628;17.852;2022-12-18T04:04:27;0.40;99.90
12123;DHT22;6125;59.628;17.852;2022-12-18T04:06:55;0.40;99.90
12123;DHT22;6125;59.628;17.852;2022-12-18T04:09:23;0.40;99.90
12123;DHT22;6125;59.628;17.852;2022-12-18T04:11:52;0.40;99.90
12123;DHT22;6125;59.628;17.852;2022-12-18T04:14:19;0.40;99.90
12123;DHT22;6125;59.628;17.852;2022-12-18T04:16:45;0.30;99.90
12123;DHT22;6125;59.628;17.852;2022-12-18T04:19:13;0.30;99.90
12123;DHT22;6125;59.628;17.852;2022-12-18T04:21:40;0.30;99.90
12123;DHT22;6125;59.628;17.852;2022-12-18T04:24:07;0.30;99.90
12123;DHT22;6125;59.628;17.852;2022-12-18T04:26:34;0.20;99.90
12123;DHT22;6125;59.628;17.852;2022-12-18T04:29:02;0.20;99.90
12123;DHT22;6125;59.628;17.852;2022-12-18T04:31:29;0.30;99.90
12123;DHT22;6125;59.628;17.852;2022-12-18T04:33:56;0.20;99.90
12123;DHT22;6125;59.628;17.852;2022-12-18T04:36:27;0.20;99.90
12123;DHT22;6125;59.628;17.852;2022-12-18T04:38:54;0.20;99.90
12123;DHT22;6125;59.628;17.852;2022-12-18T04:41:21;0.20;99.90
12123;DHT22;6125;59.628;17.852;2022-12-18T04:43:48;0.20;99.90
12123;DHT22;6125;59.628;17.852;2022-12-18T04:46:16;0.10;99.90
12123;DHT22;6125;59.628;17.852;2022-12-18T04:48:45;0.10;99.90
12123;DHT22;6125;59.628;17.852;2022-12-18T04:51:12;0.10;99.90
12123;DHT22;6125;59.628;17.852;2022-12-18T04:53:39;0.10;99.90
12123;DHT22;6125;59.628;17.852;2022-12-18T04:56:09;0.10;99.90
12123;DHT22;6125;59.628;17.852;2022-12-18T04:58:37;0.10;99.90
12123;DHT22;6125;59.628;17.852;2022-12-18T05:01:05;0.10;99.90
12123;DHT22;6125;59.628;17.852;2022-12-18T05:03:34;0.10;99.90
12123;DHT22;6125;59.628;17.852;2022-12-18T05:06:05;0.10;99.90
12123;DHT22;6125;59.628;17.852;2022-12-18T05:08:33;0.10;99.90
12123;DHT22;6125;59.628;17.852;2022-12-18T05:11:00;0.10;99.90
12123;DHT22;6125;59.628;17.852;2022-12-18T05:13:27;0.10;99.90
12123;DHT22;6125;59.628;17.852;2022-12-18T05:15:55;0.10;99.90
12123;DHT22;6125;59.628;17.852;2022-12-18T05:18:22;0.10;99.90
12123;DHT22;6125;59.628;17.852;2022-12-18T05:20:51;0.10;99.90
12123;DHT22;6125;59.628;17.852;2022-12-18T05:23:18;0.10;99.90
12123;DHT22;6125;59.628;17.852;2022-12-18T05:25:50;0.10;99.90
12123;DHT22;6125;59.628;17.852;2022-12-18T05:28:17;0.10;99.90
12123;DHT22;6125;59.628;17.852;2022-12-18T05:30:48;0.10;99.90
12123;DHT22;6125;59.628;17.852;2022-12-18T05:33:15;0.10;99.90
12123;DHT22;6125;59.628;17.852;2022-12-18T05:35:42;0.10;99.90
12123;DHT22;6125;59.628;17.852;2022-12-18T05:38:11;0.10;99.90
12123;DHT22;6125;59.628;17.852;2022-12-18T05:40:41;0.10;99.90
12123;DHT22;6125;59.628;17.852;2022-12-18T05:43:09;0.10;99.90
12123;DHT22;6125;59.628;17.852;2022-12-18T05:45:37;0.10;99.90
12123;DHT22;6125;59.628;17.852;2022-12-18T05:48:04;0.10;99.90
12123;DHT22;6125;59.628;17.852;2022-12-18T05:50:34;0.20;99.90
12123;DHT22;6125;59.628;17.852;2022-12-18T05:53:01;0.20;99.90
12123;DHT22;6125;59.628;17.852;2022-12-18T05:55:32;0.20;99.90
12123;DHT22;6125;59.628;17.852;2022-12-18T05:57:59;0.20;99.90
12123;DHT22;6125;59.628;17.852;2022-12-18T06:00:26;0.20;99.90
12123;DHT22;6125;59.628;17.852;2022-12-18T06:02:53;0.20;99.90
12123;DHT22;6125;59.628;17.852;2022-12-18T06:05:20;0.20;99.90
12123;DHT22;6125;59.628;17.852;2022-12-18T06:07:47;0.20;99.90
12123;DHT22;6125;59.628;17.852;2022-12-18T06:10:14;0.10;99.90
12123;DHT22;6125;59.628;17.852;2022-12-18T06:12:42;0.10;99.90
12123;DHT22;6125;59.628;17.852;2022-12-18T06:15:09;0.10;99.90
12123;DHT22;6125;59.628;17.852;2022-12-18T06:17:36;0.10;99.90
12123;DHT22;6125;59.628;17.852;2022-12-18T06:20:04;0.10;99.90
12123;DHT22;6125;59.628;17.852;2022-12-18T06:22:32;0.10;99.90
12123;DHT22;6125;59.628;17.852;2022-12-18T06:25:00;0.10;99.90
12123;DHT22;6125;59.628;17.852;2022-12-18T06:27:27;0.10;99.90
12123;DHT22;6125;59.628;17.852;2022-12-18T06:29:55;0.10;99.90
12123;DHT22;6125;59.628;17.852;2022-12-18T06:32:22;0.10;99.90
12123;DHT22;6125;59.628;17.852;2022-12-18T06:34:49;0.10;99.90
12123;DHT22;6125;59.628;17.852;2022-12-18T06:37:16;0.10;99.90
12123;DHT22;6125;59.628;17.852;2022-12-18T06:39:43;0.10;99.90
12123;DHT22;6125;59.628;17.852;2022-12-18T06:42:10;0.10;99.90
12123;DHT22;6125;59.628;17.852;2022-12-18T06:44:37;0.10;99.90
12123;DHT22;6125;59.628;17.852;2022-12-18T06:47:05;0.10;99.90
12123;DHT22;6125;59.628;17.852;2022-12-18T06:49:32;0.10;99.90
12123;DHT22;6125;59.628;17.852;2022-12-18T06:51:59;0.10;99.90
12123;DHT22;6125;59.628;17.852;2022-12-18T06:54:26;0.10;99.90
12123;DHT22;6125;59.628;17.852;2022-12-18T06:56:53;0.10;99.90
12123;DHT22;6125;59.628;17.852;2022-12-18T06:59:20;0.10;99.90
12123;DHT22;6125;59.628;17.852;2022-12-18T07:01:47;0.10;99.90
12123;DHT22;6125;59.628;17.852;2022-12-18T07:04:15;0.10;99.90
12123;DHT22;6125;59.628;17.852;2022-12-18T07:06:42;0.10;99.90
12123;DHT22;6125;59.628;17.852;2022-12-18T07:09:09;0.20;99.90
12123;DHT22;6125;59.628;17.852;2022-12-18T07:11:36;0.10;99.90
12123;DHT22;6125;59.628;17.852;2022-12-18T07:14:03;0.10;99.90
12123;DHT22;6125;59.628;17.852;2022-12-18T07:16:30;0.10;99.90
12123;DHT22;6125;59.628;17.852;2022-12-18T07:18:57;0.10;99.90
12123;DHT22;6125;59.628;17.852;2022-12-18T07:21:25;0.10;99.90
12123;DHT22;6125;59.628;17.852;2022-12-18T07:23:52;0.00;99.90
12123;DHT22;6125;59.628;17.852;2022-12-18T07:26:21;0.00;99.90
12123;DHT22;6125;59.628;17.852;2022-12-18T07:28:55;0.00;99.90
12123;DHT22;6125;59.628;17.852;2022-12-18T07:31:23;0.00;99.90
12123;DHT22;6125;59.628;17.852;2022-12-18T07:33:51;0.00;99.90
12123;DHT22;6125;59.628;17.852;2022-12-18T07:36:22;0.00;99.90
12123;DHT22;6125;59.628;17.852;2022-12-18T07:38:51;0.00;99.90
12123;DHT22;6125;59.628;17.852;2022-12-18T07:41:18;0.00;99.90
12123;DHT22;6125;59.628;17.852;2022-12-18T07:43:45;0.00;99.90
12123;DHT22;6125;59.628;17.852;2022-12-18T07:46:16;0.00;99.90
12123;DHT22;6125;59.628;17.852;2022-12-18T07:48:43;0.00;99.90
12123;DHT22;6125;59.628;17.852;2022-12-18T07:51:12;0.10;99.90
12123;DHT22;6125;59.628;17.852;2022-12-18T07:53:39;0.10;99.90
12123;DHT22;6125;59.628;17.852;2022-12-18T07:56:09;0.10;99.90
12123;DHT22;6125;59.628;17.852;2022-12-18T07:58:37;0.10;99.90
12123;DHT22;6125;59.628;17.852;2022-12-18T08:01:04;0.10;99.90
12123;DHT22;6125;59.628;17.852;2022-12-18T08:03:32;0.20;99.90
12123;DHT22;6125;59.628;17.852;2022-12-18T08:06:00;0.20;99.90
12123;DHT22;6125;59.628;17.852;2022-12-18T08:08:27;0.20;99.90
12123;DHT22;6125;59.628;17.852;2022-12-18T08:10:54;0.20;99.90
12123;DHT22;6125;59.628;17.852;2022-12-18T08:13:23;0.20;99.90
12123;DHT22;6125;59.628;17.852;2022-12-18T08:15:56;0.30;99.90
12123;DHT22;6125;59.628;17.852;2022-12-18T08:18:23;0.30;99.90
12123;DHT22;6125;59.628;17.852;2022-12-18T08:20:50;0.30;99.90
12123;DHT22;6125;59.628;17.852;2022-12-18T08:23:17;0.30;99.90
12123;DHT22;6125;59.628;17.852;2022-12-18T08:25:44;0.30;99.90
12123;DHT22;6125;59.628;17.852;2022-12-18T08:28:11;0.40;99.90
12123;DHT22;6125;59.628;17.852;2022-12-18T08:30:40;0.40;99.90
12123;DHT22;6125;59.628;17.852;2022-12-18T08:33:08;0.40;99.90
12123;DHT22;6125;59.628;17.852;2022-12-18T08:35:35;0.40;99.90
12123;DHT22;6125;59.628;17.852;2022-12-18T08:38:03;0.40;99.90
12123;DHT22;6125;59.628;17.852;2022-12-18T08:40:30;0.40;99.90
12123;DHT22;6125;59.628;17.852;2022-12-18T08:42:57;0.40;99.90
12123;DHT22;6125;59.628;17.852;2022-12-18T08:45:43;0.40;99.90
12123;DHT22;6125;59.628;17.852;2022-12-18T08:48:09;0.50;99.90
12123;DHT22;6125;59.628;17.852;2022-12-18T08:50:36;0.50;99.90
12123;DHT22;6125;59.628;17.852;2022-12-18T08:53:03;0.50;99.90
12123;DHT22;6125;59.628;17.852;2022-12-18T08:55:30;0.50;99.90
12123;DHT22;6125;59.628;17.852;2022-12-18T08:57:57;0.60;99.90
12123;DHT22;6125;59.628;17.852;2022-12-18T09:00:24;0.60;99.90
12123;DHT22;6125;59.628;17.852;2022-12-18T09:02:52;0.70;99.90
12123;DHT22;6125;59.628;17.852;2022-12-18T09:05:19;0.70;99.90
12123;DHT22;6125;59.628;17.852;2022-12-18T09:07:46;0.70;99.90
12123;DHT22;6125;59.628;17.852;2022-12-18T09:10:13;0.80;99.90
12123;DHT22;6125;59.628;17.852;2022-12-18T09:12:40;0.80;99.90
12123;DHT22;6125;59.628;17.852;2022-12-18T09:15:08;0.80;99.90
12123;DHT22;6125;59.628;17.852;2022-12-18T09:17:35;0.90;99.90
12123;DHT22;6125;59.628;17.852;2022-12-18T09:20:03;0.90;99.90
12123;DHT22;6125;59.628;17.852;2022-12-18T09:22:31;0.90;99.90
12123;DHT22;6125;59.628;17.852;2022-12-18T09:24:58;1.00;99.90
12123;DHT22;6125;59.628;17.852;2022-12-18T09:27:24;1.00;99.90
12123;DHT22;6125;59.628;17.852;2022-12-18T09:29:51;1.00;99.90
12123;DHT22;6125;59.628;17.852;2022-12-18T09:32:18;1.00;99.90
12123;DHT22;6125;59.628;17.852;2022-12-18T09:34:45;1.10;99.90
12123;DHT22;6125;59.628;17.852;2022-12-18T09:37:13;1.10;99.90
12123;DHT22;6125;59.628;17.852;2022-12-18T09:39:40;1.10;99.90
12123;DHT22;6125;59.628;17.852;2022-12-18T09:42:14;1.10;99.90
12123;DHT22;6125;59.628;17.852;2022-12-18T09:44:50;1.20;99.90
12123;DHT22;6125;59.628;17.852;2022-12-18T09:47:19;1.20;99.90
12123;DHT22;6125;59.628;17.852;2022-12-18T09:49:50;1.20;99.90
12123;DHT22;6125;59.628;17.852;2022-12-18T09:52:25;1.20;99.90
12123;DHT22;6125;59.628;17.852;2022-12-18T09:54:56;1.20;99.90
12123;DHT22;6125;59.628;17.852;2022-12-18T09:57:25;1.30;99.90
12123;DHT22;6125;59.628;17.852;2022-12-18T09:59:55;1.30;99.90
12123;DHT22;6125;59.628;17.852;2022-12-18T10:02:24;1.30;99.90
12123;DHT22;6125;59.628;17.852;2022-12-18T10:05:03;1.30;99.90
12123;DHT22;6125;59.628;17.852;2022-12-18T10:07:41;1.40;99.90
12123;DHT22;6125;59.628;17.852;2022-12-18T10:10:19;1.40;99.90
12123;DHT22;6125;59.628;17.852;2022-12-18T10:12:56;1.40;99.90
12123;DHT22;6125;59.628;17.852;2022-12-18T10:15:28;1.40;99.90
12123;DHT22;6125;59.628;17.852;2022-12-18T10:18:05;1.50;99.90
12123;DHT22;6125;59.628;17.852;2022-12-18T10:20:41;1.50;99.90
12123;DHT22;6125;59.628;17.852;2022-12-18T10:23:16;1.50;99.90
12123;DHT22;6125;59.628;17.852;2022-12-18T10:25:53;1.50;99.90
12123;DHT22;6125;59.628;17.852;2022-12-18T10:28:24;1.50;99.90
12123;DHT22;6125;59.628;17.852;2022-12-18T10:30:51;1.50;99.90
12123;DHT22;6125;59.628;17.852;2022-12-18T10:33:20;1.60;99.90
12123;DHT22;6125;59.628;17.852;2022-12-18T10:35:50;1.60;99.90
12123;DHT22;6125;59.628;17.852;2022-12-18T10:38:24;1.60;99.90
12123;DHT22;6125;59.628;17.852;2022-12-18T10:40:53;1.60;99.90
12123;DHT22;6125;59.628;17.852;2022-12-18T10:43:22;1.60;99.90
12123;DHT22;6125;59.628;17.852;2022-12-18T10:48:55;1.70;99.90
12123;DHT22;6125;59.628;17.852;2022-12-18T10:51:24;1.70;99.90
12123;DHT22;6125;59.628;17.852;2022-12-18T10:53:57;1.70;99.90
12123;DHT22;6125;59.628;17.852;2022-12-18T10:56:26;1.70;99.90
12123;DHT22;6125;59.628;17.852;2022-12-18T10:58:59;1.80;99.90
12123;DHT22;6125;59.628;17.852;2022-12-18T11:01:26;1.80;99.90
12123;DHT22;6125;59.628;17.852;2022-12-18T11:04:02;1.80;99.90
12123;DHT22;6125;59.628;17.852;2022-12-18T11:06:35;1.80;99.90
12123;DHT22;6125;59.628;17.852;2022-12-18T11:09:22;1.90;99.90
12123;DHT22;6125;59.628;17.852;2022-12-18T11:11:49;1.90;99.90
12123;DHT22;6125;59.628;17.852;2022-12-18T11:14:21;1.90;99.90
12123;DHT22;6125;59.628;17.852;2022-12-18T11:16:50;2.00;99.90
12123;DHT22;6125;59.628;17.852;2022-12-18T11:19:28;1.90;99.90
12123;DHT22;6125;59.628;17.852;2022-12-18T11:21:55;1.90;99.90
12123;DHT22;6125;59.628;17.852;2022-12-18T11:24:29;2.00;99.90
12123;DHT22;6125;59.628;17.852;2022-12-18T11:26:58;2.00;99.90
12123;DHT22;6125;59.628;17.852;2022-12-18T11:29:32;2.00;99.90
12123;DHT22;6125;59.628;17.852;2022-12-18T11:32:23;2.10;99.90
12123;DHT22;6125;59.628;17.852;2022-12-18T11:34:55;2.10;99.90
12123;DHT22;6125;59.628;17.852;2022-12-18T11:37:24;2.10;99.90
12123;DHT22;6125;59.628;17.852;2022-12-18T11:39:56;2.10;99.90
12123;DHT22;6125;59.628;17.852;2022-12-18T11:42:30;2.10;99.90
12123;DHT22;6125;59.628;17.852;2022-12-18T11:45:02;2.10;99.90
12123;DHT22;6125;59.628;17.852;2022-12-18T11:47:39;2.10;99.90
12123;DHT22;6125;59.628;17.852;2022-12-18T11:50:13;2.10;99.90
12123;DHT22;6125;59.628;17.852;2022-12-18T11:52:41;2.10;99.90
12123;DHT22;6125;59.628;17.852;2022-12-18T11:55:13;2.10;99.90
12123;DHT22;6125;59.628;17.852;2022-12-18T11:57:48;2.10;99.90
12123;DHT22;6125;59.628;17.852;2022-12-18T12:00:19;2.10;99.90
12123;DHT22;6125;59.628;17.852;2022-12-18T12:03:06;2.10;99.90
12123;DHT22;6125;59.628;17.852;2022-12-18T12:05:44;2.10;99.90
12123;DHT22;6125;59.628;17.852;2022-12-18T12:08:18;2.10;99.90
12123;DHT22;6125;59.628;17.852;2022-12-18T12:10:56;2.10;99.90
12123;DHT22;6125;59.628;17.852;2022-12-18T12:13:34;2.10;99.90
12123;DHT22;6125;59.628;17.852;2022-12-18T12:16:12;2.20;99.90
12123;DHT22;6125;59.628;17.852;2022-12-18T12:19:06;2.20;99.90
12123;DHT22;6125;59.628;17.852;2022-12-18T12:21:40;2.20;99.90
12123;DHT22;6125;59.628;17.852;2022-12-18T12:24:19;2.20;99.90
12123;DHT22;6125;59.628;17.852;2022-12-18T12:26:59;2.20;99.90
12123;DHT22;6125;59.628;17.852;2022-12-18T12:29:40;2.30;99.90
12123;DHT22;6125;59.628;17.852;2022-12-18T12:32:21;2.30;99.90
12123;DHT22;6125;59.628;17.852;2022-12-18T12:34:59;2.30;99.90
12123;DHT22;6125;59.628;17.852;2022-12-18T12:37:37;2.30;99.90
12123;DHT22;6125;59.628;17.852;2022-12-18T12:40:11;2.30;99.90
12123;DHT22;6125;59.628;17.852;2022-12-18T12:42:44;2.30;99.90
12123;DHT22;6125;59.628;17.852;2022-12-18T12:45:34;2.30;99.90
12123;DHT22;6125;59.628;17.852;2022-12-18T12:48:05;2.30;99.90
12123;DHT22;6125;59.628;17.852;2022-12-18T12:50:36;2.40;99.90
12123;DHT22;6125;59.628;17.852;2022-12-18T12:53:06;2.40;99.90
12123;DHT22;6125;59.628;17.852;2022-12-18T12:55:36;2.40;99.90
12123;DHT22;6125;59.628;17.852;2022-12-18T12:58:10;2.40;99.90
12123;DHT22;6125;59.628;17.852;2022-12-18T13:00:46;2.50;99.90
12123;DHT22;6125;59.628;17.852;2022-12-18T13:03:24;2.50;99.90
12123;DHT22;6125;59.628;17.852;2022-12-18T13:05:59;2.50;99.90
12123;DHT22;6125;59.628;17.852;2022-12-18T13:08:28;2.50;99.90
12123;DHT22;6125;59.628;17.852;2022-12-18T13:10:57;2.50;99.90
12123;DHT22;6125;59.628;17.852;2022-12-18T13:13:49;2.50;99.90
12123;DHT22;6125;59.628;17.852;2022-12-18T13:16:20;2.60;99.90
12123;DHT22;6125;59.628;17.852;2022-12-18T13:18:51;2.50;99.90
12123;DHT22;6125;59.628;17.852;2022-12-18T13:21:23;2.50;99.90
12123;DHT22;6125;59.628;17.852;2022-12-18T13:23:53;2.50;99.90
12123;DHT22;6125;59.628;17.852;2022-12-18T13:26:33;2.50;99.90
12123;DHT22;6125;59.628;17.852;2022-12-18T13:29:02;2.60;99.90
12123;DHT22;6125;59.628;17.852;2022-12-18T13:31:59;2.60;99.90
12123;DHT22;6125;59.628;17.852;2022-12-18T13:34:27;2.60;99.90
12123;DHT22;6125;59.628;17.852;2022-12-18T13:36:57;2.70;99.90
12123;DHT22;6125;59.628;17.852;2022-12-18T13:39:44;2.60;99.90
12123;DHT22;6125;59.628;17.852;2022-12-18T13:42:39;2.60;99.90
12123;DHT22;6125;59.628;17.852;2022-12-18T13:45:44;2.70;99.90
12123;DHT22;6125;59.628;17.852;2022-12-18T13:48:22;2.70;99.90
12123;DHT22;6125;59.628;17.852;2022-12-18T13:50:53;2.70;99.90
12123;DHT22;6125;59.628;17.852;2022-12-18T13:53:24;2.70;99.90
12123;DHT22;6125;59.628;17.852;2022-12-18T13:55:53;2.80;99.90
12123;DHT22;6125;59.628;17.852;2022-12-18T13:58:20;2.80;99.90
12123;DHT22;6125;59.628;17.852;2022-12-18T14:00:49;2.80;99.90
12123;DHT22;6125;59.628;17.852;2022-12-18T14:03:21;2.90;99.90
12123;DHT22;6125;59.628;17.852;2022-12-18T14:05:58;2.90;99.90
12123;DHT22;6125;59.628;17.852;2022-12-18T14:08:34;3.00;99.90
12123;DHT22;6125;59.628;17.852;2022-12-18T14:11:03;3.00;99.90
12123;DHT22;6125;59.628;17.852;2022-12-18T14:13:33;3.00;99.90
12123;DHT22;6125;59.628;17.852;2022-12-18T14:16:03;3.00;99.90
12123;DHT22;6125;59.628;17.852;2022-12-18T14:18:37;3.00;99.90
12123;DHT22;6125;59.628;17.852;2022-12-18T14:21:05;3.00;99.90
12123;DHT22;6125;59.628;17.852;2022-12-18T14:23:35;2.90;99.90
12123;DHT22;6125;59.628;17.852;2022-12-18T14:26:17;3.00;99.90
12123;DHT22;6125;59.628;17.852;2022-12-18T14:28:46;2.90;99.90
12123;DHT22;6125;59.628;17.852;2022-12-18T14:31:18;2.90;99.90
12123;DHT22;6125;59.628;17.852;2022-12-18T14:33:46;2.80;99.90
12123;DHT22;6125;59.628;17.852;2022-12-18T14:36:16;2.80;99.90
12123;DHT22;6125;59.628;17.852;2022-12-18T14:38:48;2.80;99.90
12123;DHT22;6125;59.628;17.852;2022-12-18T14:41:17;2.80;99.90
12123;DHT22;6125;59.628;17.852;2022-12-18T14:43:45;2.80;99.90
12123;DHT22;6125;59.628;17.852;2022-12-18T14:46:29;2.70;99.90
12123;DHT22;6125;59.628;17.852;2022-12-18T14:48:57;2.80;99.90
12123;DHT22;6125;59.628;17.852;2022-12-18T14:51:25;2.80;99.90
12123;DHT22;6125;59.628;17.852;2022-12-18T14:53:54;2.80;99.90
12123;DHT22;6125;59.628;17.852;2022-12-18T14:56:24;2.80;99.90
12123;DHT22;6125;59.628;17.852;2022-12-18T14:58:54;2.80;99.90
12123;DHT22;6125;59.628;17.852;2022-12-18T15:01:28;2.80;99.90
12123;DHT22;6125;59.628;17.852;2022-12-18T15:03:57;2.90;99.90
12123;DHT22;6125;59.628;17.852;2022-12-18T15:06:31;2.90;99.90
12123;DHT22;6125;59.628;17.852;2022-12-18T15:09:00;2.90;99.90
12123;DHT22;6125;59.628;17.852;2022-12-18T15:11:45;2.90;99.90
12123;DHT22;6125;59.628;17.852;2022-12-18T15:14:23;3.00;99.90
12123;DHT22;6125;59.628;17.852;2022-12-18T15:16:53;3.00;99.90
12123;DHT22;6125;59.628;17.852;2022-12-18T15:19:25;3.00;99.90
12123;DHT22;6125;59.628;17.852;2022-12-18T15:21:53;3.00;99.90
12123;DHT22;6125;59.628;17.852;2022-12-18T15:24:26;3.00;99.90
12123;DHT22;6125;59.628;17.852;2022-12-18T15:26:53;3.00;99.90
12123;DHT22;6125;59.628;17.852;2022-12-18T15:29:21;3.00;99.90
12123;DHT22;6125;59.628;17.852;2022-12-18T15:32:01;3.00;99.90
12123;DHT22;6125;59.628;17.852;2022-12-18T15:34:30;2.90;99.90
12123;DHT22;6125;59.628;17.852;2022-12-18T15:36:58;2.90;99.90
12123;DHT22;6125;59.628;17.852;2022-12-18T15:39:25;2.90;99.90
12123;DHT22;6125;59.628;17.852;2022-12-18T15:41:52;2.90;99.90
12123;DHT22;6125;59.628;17.852;2022-12-18T15:44:37;2.80;99.90
12123;DHT22;6125;59.628;17.852;2022-12-18T15:47:09;2.80;99.90
12123;DHT22;6125;59.628;17.852;2022-12-18T15:49:36;2.80;99.90
12123;DHT22;6125;59.628;17.852;2022-12-18T15:52:03;2.80;99.90
12123;DHT22;6125;59.628;17.852;2022-12-18T15:54:30;2.80;99.90
12123;DHT22;6125;59.628;17.852;2022-12-18T15:57:15;2.80;99.90
12123;DHT22;6125;59.628;17.852;2022-12-18T15:59:51;2.80;99.90
12123;DHT22;6125;59.628;17.852;2022-12-18T16:02:21;2.90;99.90
12123;DHT22;6125;59.628;17.852;2022-12-18T16:04:49;2.90;99.90
12123;DHT22;6125;59.628;17.852;2022-12-18T16:07:16;3.00;99.90
12123;DHT22;6125;59.628;17.852;2022-12-18T16:09:44;3.00;99.90